Time;durP1;ratioP1;P1;durP2;ratioP2;P2;SDS_P1;SDS_P2;PMS_P1;PMS_P2;Temp;Humidity;BMP_temperature;BMP_pressure;BME280_temperature;BME280_humidity;BME280_pressure;Samples;Min_cycle;Max_cycle;Signal;HPM_P1;HPM_P2
2022/09/12 00:00:35;;;;;;;19.10;8.35;;;;;;;;;;5010825;28;20057;-44
2022/09/12 00:03:09;;;;;;;13.07;8.07;;;;;;;;;;5015410;28;20049;-45
2022/09/12 00:05:43;;;;;;;23.15;9.13;;;;;;;;;;5016205;28;20057;-45
2022/09/12 00:08:17;;;;;;;15.50;8.13;;;;;;;;;;5019008;28;20140;-45
2022/09/12 00:10:51;;;;;;;7.80;4.93;;;;;;;;;;5011624;28;20501;-44
2022/09/12 00:13:18;;;;;;;11.45;7.25;;;;;;;;;;5016721;28;20515;-44
2022/09/12 00:15:52;;;;;;;10.93;5.50;;;;;;;;;;5019431;28;20073;-46
2022/09/12 00:18:19;;;;;;;11.68;5.97;;;;;;;;;;5015353;28;20046;-47
2022/09/12 00:20:53;;;;;;;13.55;6.80;;;;;;;;;;5015325;28;20516;-44
2022/09/12 00:23:20;;;;;;;12.57;7.20;;;;;;;;;;5017227;28;20056;-54
2022/09/12 00:25:54;;;;;;;11.88;7.53;;;;;;;;;;5014924;28;20426;-58
2022/09/12 00:28:21;;;;;;;11.20;7.40;;;;;;;;;;5018586;28;20485;-58
2022/09/12 00:30:49;;;;;;;13.90;7.05;;;;;;;;;;5017577;28;20053;-58
2022/09/12 00:33:29;;;;;;;11.75;7.15;;;;;;;;;;5017151;28;20053;-59
2022/09/12 00:35:56;;;;;;;16.73;7.45;;;;;;;;;;5020038;28;20061;-59
2022/09/12 00:38:30;;;;;;;7.95;6.03;;;;;;;;;;5017651;28;20053;-57
2022/09/12 00:40:57;;;;;;;11.75;7.10;;;;;;;;;;5013411;28;20052;-54
2022/09/12 00:43:35;;;;;;;9.88;6.60;;;;;;;;;;5015197;28;20053;-53
2022/09/12 00:46:14;;;;;;;11.32;6.75;;;;;;;;;;5021050;28;20484;-66
2022/09/12 00:49:08;;;;;;;9.23;6.43;;;;;;;;;;5016566;28;20738;-66
2022/09/12 00:51:36;;;;;;;11.85;6.40;;;;;;;;;;5008044;28;20049;-66
2022/09/12 00:54:12;;;;;;;15.25;7.40;;;;;;;;;;5014577;28;20046;-66
2022/09/12 00:56:41;;;;;;;17.20;7.47;;;;;;;;;;5015214;28;20045;-66
2022/09/12 00:59:18;;;;;;;12.25;6.80;;;;;;;;;;5015899;28;20052;-56
2022/09/12 01:01:47;;;;;;;13.30;5.95;;;;;;;;;;5013518;28;20045;-56
2022/09/12 01:04:22;;;;;;;8.68;6.22;;;;;;;;;;5019478;28;20068;-54
2022/09/12 01:06:50;;;;;;;12.52;7.15;;;;;;;;;;5018141;28;20038;-56
2022/09/12 01:09:25;;;;;;;17.20;9.32;;;;;;;;;;5017547;28;20064;-53
2022/09/12 01:11:52;;;;;;;21.17;11.50;;;;;;;;;;5016121;28;20731;-52
2022/09/12 01:14:20;;;;;;;15.57;10.00;;;;;;;;;;5016495;28;20053;-56
2022/09/12 01:16:54;;;;;;;12.75;7.13;;;;;;;;;;5021977;28;20511;-54
2022/09/12 01:19:40;;;;;;;9.60;6.43;;;;;;;;;;5018187;28;20100;-70
2022/09/12 01:22:43;;;;;;;7.88;5.60;;;;;;;;;;5017975;28;20060;-45
2022/09/12 01:25:13;;;;;;;8.82;5.68;;;;;;;;;;5003618;28;20057;-45
2022/09/12 01:27:59;;;;;;;16.20;8.75;;;;;;;;;;5012749;28;20064;-45
2022/09/12 01:30:43;;;;;;;14.57;8.77;;;;;;;;;;5014711;28;20067;-45
2022/09/12 01:33:31;;;;;;;10.13;7.55;;;;;;;;;;5016208;28;20049;-45
2022/09/12 01:36:05;;;;;;;11.05;7.10;;;;;;;;;;5015934;28;20046;-44
2022/09/12 01:38:46;;;;;;;13.35;7.75;;;;;;;;;;5016865;28;20050;-70
2022/09/12 01:41:16;;;;;;;9.48;7.15;;;;;;;;;;5016934;28;20103;-70
2022/09/12 01:43:50;;;;;;;9.00;6.57;;;;;;;;;;5014917;28;20038;-71
2022/09/12 01:46:20;;;;;;;13.38;7.80;;;;;;;;;;5015356;28;20071;-70
2022/09/12 01:48:55;;;;;;;8.63;6.38;;;;;;;;;;4999862;28;20048;-70
2022/09/12 01:51:37;;;;;;;8.82;5.82;;;;;;;;;;5018389;28;20050;-66
2022/09/12 01:54:07;;;;;;;8.63;6.30;;;;;;;;;;5010830;28;20657;-71
2022/09/12 01:56:42;;;;;;;9.95;6.18;;;;;;;;;;5015788;28;20052;-58
2022/09/12 01:59:28;;;;;;;11.38;6.75;;;;;;;;;;5016280;28;20052;-53
2022/09/12 02:02:24;;;;;;;13.70;8.00;;;;;;;;;;5016799;28;20417;-52
2022/09/12 02:04:57;;;;;;;13.75;8.20;;;;;;;;;;5015336;28;20053;-56
2022/09/12 02:07:36;;;;;;;11.02;7.55;;;;;;;;;;5016286;28;20045;-56
2022/09/12 02:10:07;;;;;;;11.45;7.93;;;;;;;;;;5014694;28;20058;-53
2022/09/12 02:12:47;;;;;;;12.50;7.40;;;;;;;;;;5013622;28;20045;-53
2022/09/12 02:15:15;;;;;;;10.27;7.03;;;;;;;;;;5015806;28;20424;-68
2022/09/12 02:17:50;;;;;;;19.75;9.15;;;;;;;;;;5016342;28;20417;-59
2022/09/12 02:20:20;;;;;;;13.73;9.02;;;;;;;;;;5018779;28;20056;-56
2022/09/12 02:23:17;;;;;;;15.50;9.70;;;;;;;;;;5015827;28;20056;-55
2022/09/12 02:25:45;;;;;;;16.13;9.80;;;;;;;;;;5012693;28;20057;-58
2022/09/12 02:28:29;;;;;;;11.77;8.50;;;;;;;;;;5013487;28;20041;-57
2022/09/12 02:31:14;;;;;;;11.57;6.28;;;;;;;;;;5013947;28;20497;-53
2022/09/12 02:33:53;;;;;;;11.98;6.70;;;;;;;;;;5015112;28;20528;-56
2022/09/12 02:36:39;;;;;;;14.10;7.80;;;;;;;;;;5016825;28;20390;-55
2022/09/12 02:39:18;;;;;;;9.52;7.20;;;;;;;;;;5014804;28;20061;-58
2022/09/12 02:41:46;;;;;;;9.45;6.40;;;;;;;;;;5015262;28;20052;-55
2022/09/12 02:44:20;;;;;;;15.52;7.68;;;;;;;;;;5013987;28;20064;-54
2022/09/12 02:46:56;;;;;;;16.55;9.32;;;;;;;;;;5018763;28;20056;-56
2022/09/12 02:49:37;;;;;;;13.38;9.80;;;;;;;;;;5014104;28;20046;-55
2022/09/12 02:52:04;;;;;;;18.27;11.25;;;;;;;;;;5015909;28;20048;-56
2022/09/12 02:54:38;;;;;;;13.52;8.30;;;;;;;;;;5011495;28;20061;-46
2022/09/12 02:57:14;;;;;;;12.75;8.43;;;;;;;;;;5013873;28;20912;-70
2022/09/12 02:59:50;;;;;;;12.45;8.98;;;;;;;;;;5009303;28;20481;-47
2022/09/12 03:02:50;;;;;;;13.95;9.25;;;;;;;;;;5014478;28;20054;-47
2022/09/12 03:05:31;;;;;;;15.75;8.60;;;;;;;;;;5000180;28;20049;-44
2022/09/12 03:08:28;;;;;;;15.55;9.13;;;;;;;;;;5014744;28;20061;-49
2022/09/12 03:11:04;;;;;;;15.98;8.60;;;;;;;;;;5009414;28;20041;-45
2022/09/12 03:13:50;;;;;;;12.27;7.93;;;;;;;;;;5017975;28;20065;-69
2022/09/12 03:16:30;;;;;;;16.98;9.95;;;;;;;;;;5012915;28;20055;-45
2022/09/12 03:19:13;;;;;;;14.50;9.57;;;;;;;;;;5016440;28;20049;-46
2022/09/12 03:21:59;;;;;;;15.57;10.10;;;;;;;;;;5015538;28;20166;-44
2022/09/12 03:24:36;;;;;;;12.50;9.52;;;;;;;;;;5010902;28;20045;-45
2022/09/12 03:27:15;;;;;;;15.73;9.43;;;;;;;;;;5013074;28;20488;-47
2022/09/12 03:30:03;;;;;;;13.63;9.98;;;;;;;;;;5012428;28;20072;-48
2022/09/12 03:32:47;;;;;;;13.52;9.50;;;;;;;;;;5014737;28;20064;-67
2022/09/12 03:35:22;;;;;;;15.57;9.10;;;;;;;;;;5014565;28;20054;-44
2022/09/12 03:37:50;;;;;;;17.67;10.73;;;;;;;;;;5015109;28;20054;-48
2022/09/12 03:40:18;;;;;;;16.23;10.10;;;;;;;;;;5017159;28;20159;-47
2022/09/12 03:42:52;;;;;;;12.15;9.45;;;;;;;;;;5019490;28;20050;-45
2022/09/12 03:45:19;;;;;;;16.23;10.27;;;;;;;;;;5013810;28;20409;-44
2022/09/12 03:47:53;;;;;;;19.42;10.25;;;;;;;;;;5016737;28;20508;-47
2022/09/12 03:50:20;;;;;;;18.88;10.73;;;;;;;;;;5019534;28;20049;-48
2022/09/12 03:53:00;;;;;;;22.02;11.25;;;;;;;;;;5015201;28;20050;-69
2022/09/12 03:55:28;;;;;;;20.40;11.35;;;;;;;;;;5014144;28;20051;-50
2022/09/12 03:58:02;;;;;;;16.67;10.48;;;;;;;;;;5014889;28;20050;-52
2022/09/12 04:00:29;;;;;;;18.30;10.98;;;;;;;;;;5009675;28;20046;-47
2022/09/12 04:02:57;;;;;;;21.40;10.68;;;;;;;;;;5015777;28;20058;-48
2022/09/12 04:05:30;;;;;;;17.75;10.57;;;;;;;;;;5014409;28;20054;-48
2022/09/12 04:07:57;;;;;;;17.38;10.57;;;;;;;;;;5005355;28;20076;-46
2022/09/12 04:10:24;;;;;;;16.70;10.77;;;;;;;;;;5009574;28;20061;-67
2022/09/12 04:12:58;;;;;;;16.40;10.30;;;;;;;;;;5010133;28;20064;-53
2022/09/12 04:15:32;;;;;;;17.15;11.23;;;;;;;;;;5001179;28;20075;-54
2022/09/12 04:17:59;;;;;;;13.55;9.30;;;;;;;;;;5009452;28;20056;-54
2022/09/12 04:20:32;;;;;;;18.27;10.77;;;;;;;;;;5011354;28;20049;-56
2022/09/12 04:23:06;;;;;;;17.55;11.70;;;;;;;;;;5014653;28;20042;-53
2022/09/12 04:25:33;;;;;;;13.82;10.77;;;;;;;;;;5012449;28;20050;-56
2022/09/12 04:28:07;;;;;;;18.65;12.60;;;;;;;;;;5012504;28;20042;-56
2022/09/12 04:30:34;;;;;;;15.90;11.23;;;;;;;;;;5015095;28;20579;-55
2022/09/12 04:33:15;;;;;;;21.45;10.85;;;;;;;;;;5016164;28;20045;-57
2022/09/12 04:35:42;;;;;;;13.65;10.23;;;;;;;;;;5011932;28;20049;-56
2022/09/12 04:38:16;;;;;;;19.30;11.32;;;;;;;;;;5016138;28;20060;-57
2022/09/12 04:40:43;;;;;;;17.42;13.10;;;;;;;;;;5015248;28;20050;-58
2022/09/12 04:43:10;;;;;;;21.70;11.02;;;;;;;;;;5011601;28;20475;-58
2022/09/12 04:45:44;;;;;;;13.50;10.10;;;;;;;;;;5016888;28;20060;-57
2022/09/12 04:48:11;;;;;;;16.27;10.05;;;;;;;;;;5014600;28;20388;-52
2022/09/12 04:50:45;;;;;;;16.27;11.65;;;;;;;;;;5015063;28;20049;-70
2022/09/12 04:53:12;;;;;;;20.92;12.48;;;;;;;;;;5019934;28;20050;-47
2022/09/12 04:55:46;;;;;;;20.17;11.60;;;;;;;;;;5018646;28;20131;-48
2022/09/12 04:58:13;;;;;;;;;;;;;;;;;;5017457;28;20060;-47
2022/09/12 05:00:47;;;;;;;19.38;12.80;;;;;;;;;;5020201;28;19925;-47
2022/09/12 05:03:15;;;;;;;23.27;13.40;;;;;;;;;;5019461;28;20386;-48
2022/09/12 05:05:42;;;;;;;19.55;13.05;;;;;;;;;;5017353;28;20497;-48
2022/09/12 05:08:22;;;;;;;22.13;12.80;;;;;;;;;;5021219;28;20564;-48
2022/09/12 05:10:49;;;;;;;17.75;12.95;;;;;;;;;;5016399;28;20041;-54
2022/09/12 05:13:24;;;;;;;16.77;12.52;;;;;;;;;;5019392;28;20493;-55
2022/09/12 05:15:54;;;;;;;17.65;12.50;;;;;;;;;;5003976;28;20074;-53
2022/09/12 05:18:28;;;;;;;19.20;11.35;;;;;;;;;;5019743;28;20076;-56
2022/09/12 05:20:55;;;;;;;;;;;;;;;;;;5019605;28;20061;-56
2022/09/12 05:23:29;;;;;;;18.10;12.60;;;;;;;;;;5014649;28;19925;-56
2022/09/12 05:25:57;;;;;;;17.98;13.32;;;;;;;;;;5018043;28;20053;-58
2022/09/12 05:28:32;;;;;;;19.92;13.73;;;;;;;;;;5014595;28;20057;-61
2022/09/12 05:31:07;;;;;;;20.42;13.63;;;;;;;;;;5018412;28;20323;-44
2022/09/12 05:33:42;;;;;;;23.20;14.48;;;;;;;;;;5019192;28;20046;-45
2022/09/12 05:36:11;;;;;;;20.20;13.52;;;;;;;;;;5016169;28;20050;-46
2022/09/12 05:38:38;;;;;;;21.90;12.32;;;;;;;;;;5019886;28;20048;-45
2022/09/12 05:41:19;;;;;;;17.73;12.02;;;;;;;;;;5018612;28;20057;-44
2022/09/12 05:43:54;;;;;;;17.77;12.20;;;;;;;;;;5020694;28;20516;-46
2022/09/12 05:46:32;;;;;;;14.37;11.07;;;;;;;;;;5017574;28;20428;-48
2022/09/12 05:49:03;;;;;;;17.38;12.27;;;;;;;;;;5018325;28;20315;-56
2022/09/12 05:51:39;;;;;;;15.05;11.57;;;;;;;;;;5018161;28;20049;-53
2022/09/12 05:54:07;;;;;;;19.38;12.57;;;;;;;;;;5017385;28;20056;-56
2022/09/12 05:56:38;;;;;;;16.75;13.20;;;;;;;;;;5015161;28;20525;-54
2022/09/12 05:59:13;;;;;;;17.75;12.30;;;;;;;;;;5018505;28;20041;-52
2022/09/12 06:01:41;;;;;;;15.32;11.82;;;;;;;;;;5016441;28;20050;-57
2022/09/12 06:04:22;;;;;;;18.42;12.20;;;;;;;;;;5018899;28;20061;-62
2022/09/12 06:06:50;;;;;;;21.00;11.65;;;;;;;;;;5002438;28;20049;-57
2022/09/12 06:09:24;;;;;;;16.13;11.25;;;;;;;;;;5017727;28;20079;-48
2022/09/12 06:11:51;;;;;;;17.95;11.30;;;;;;;;;;5017454;28;20060;-47
2022/09/12 06:14:32;;;;;;;17.98;10.25;;;;;;;;;;5018901;28;20068;-45
2022/09/12 06:16:59;;;;;;;14.63;10.25;;;;;;;;;;5017133;28;20045;-46
2022/09/12 06:19:33;;;;;;;17.23;10.63;;;;;;;;;;5017143;28;20412;-46
2022/09/12 06:22:01;;;;;;;19.40;11.40;;;;;;;;;;5015643;28;20172;-46
2022/09/12 06:24:28;;;;;;;16.48;11.48;;;;;;;;;;5016869;28;20093;-67
2022/09/12 06:27:02;;;;;;;13.93;10.63;;;;;;;;;;5015563;28;20052;-67
2022/09/12 06:29:31;;;;;;;18.17;9.90;;;;;;;;;;5016095;28;20487;-66
2022/09/12 06:32:12;;;;;;;19.45;10.05;;;;;;;;;;5007415;28;20061;-67
2022/09/12 06:34:39;;;;;;;15.68;9.82;;;;;;;;;;5015972;28;20049;-67
2022/09/12 06:37:13;;;;;;;14.15;9.63;;;;;;;;;;5016019;28;20045;-67
2022/09/12 06:39:41;;;;;;;14.48;9.98;;;;;;;;;;5016669;28;20067;-67
2022/09/12 06:42:08;;;;;;;16.92;10.05;;;;;;;;;;5015868;28;20092;-58
2022/09/12 06:44:43;;;;;;;12.57;9.20;;;;;;;;;;5018183;28;20045;-56
2022/09/12 06:47:10;;;;;;;13.07;9.02;;;;;;;;;;5018272;28;20085;-61
2022/09/12 06:49:38;;;;;;;11.63;9.43;;;;;;;;;;5015229;28;20053;-62
2022/09/12 06:52:11;;;;;;;10.25;8.88;;;;;;;;;;5014689;28;20519;-61
2022/09/12 06:54:38;;;;;;;13.13;8.88;;;;;;;;;;5017666;28;20403;-61
2022/09/12 06:57:12;;;;;;;13.85;8.70;;;;;;;;;;5016944;28;20052;-61
2022/09/12 06:59:39;;;;;;;14.23;8.77;;;;;;;;;;5014561;28;20060;-62
2022/09/12 07:02:08;;;;;;;11.25;7.80;;;;;;;;;;5016463;28;20600;-61
2022/09/12 07:04:42;;;;;;;11.60;7.15;;;;;;;;;;5015048;28;20059;-56
2022/09/12 07:07:10;;;;;;;13.70;6.82;;;;;;;;;;5016324;28;20050;-66
2022/09/12 07:09:44;;;;;;;9.90;7.43;;;;;;;;;;5016522;28;20046;-67
2022/09/12 07:12:11;;;;;;;7.72;6.38;;;;;;;;;;5015468;28;20045;-67
2022/09/12 07:14:45;;;;;;;8.80;6.70;;;;;;;;;;5016583;28;20417;-67
2022/09/12 07:17:12;;;;;;;14.70;7.45;;;;;;;;;;5016080;28;20515;-67
2022/09/12 07:19:46;;;;;;;8.90;5.97;;;;;;;;;;5015719;28;20586;-68
2022/09/12 07:22:13;;;;;;;13.30;6.43;;;;;;;;;;5022488;28;20048;-67
2022/09/12 07:24:40;;;;;;;8.45;5.68;;;;;;;;;;5018458;28;20057;-62
2022/09/12 07:27:14;;;;;;;8.63;5.45;;;;;;;;;;5014467;28;20076;-62
2022/09/12 07:29:43;;;;;;;10.07;6.03;;;;;;;;;;5017977;28;20041;-62
2022/09/12 07:32:17;;;;;;;8.05;5.03;;;;;;;;;;5017151;28;20054;-61
2022/09/12 07:34:51;;;;;;;10.13;5.22;;;;;;;;;;5016013;28;20042;-62
2022/09/12 07:37:25;;;;;;;7.82;4.70;;;;;;;;;;5015541;28;20057;-61
2022/09/12 07:39:52;;;;;;;5.35;4.13;;;;;;;;;;5015635;28;20042;-67
2022/09/12 07:42:26;;;;;;;11.57;4.65;;;;;;;;;;5014494;28;20077;-49
2022/09/12 07:44:53;;;;;;;6.25;4.50;;;;;;;;;;5014667;28;20506;-59
2022/09/12 07:47:27;;;;;;;5.65;3.63;;;;;;;;;;5018036;28;20064;-59
2022/09/12 07:49:55;;;;;;;5.57;4.22;;;;;;;;;;5016420;28;20152;-59
2022/09/12 07:52:22;;;;;;;5.75;4.00;;;;;;;;;;5016215;28;20045;-58
2022/09/12 07:54:56;;;;;;;5.88;4.05;;;;;;;;;;5017312;28;20042;-57
2022/09/12 07:57:24;;;;;;;9.32;4.07;;;;;;;;;;5016023;28;20045;-57
2022/09/12 07:59:57;;;;;;;6.50;3.85;;;;;;;;;;5012785;28;20053;-62
2022/09/12 08:02:24;;;;;;;8.10;4.75;;;;;;;;;;5017958;28;20058;-58
2022/09/12 08:04:52;;;;;;;9.15;4.03;;;;;;;;;;5002857;28;20042;-57
2022/09/12 08:07:26;;;;;;;6.47;3.65;;;;;;;;;;5016772;28;20049;-55
2022/09/12 08:09:53;;;;;;;5.13;3.28;;;;;;;;;;5014383;28;20057;-57
2022/09/12 08:12:20;;;;;;;4.53;3.55;;;;;;;;;;5019862;28;20060;-58
2022/09/12 08:14:54;;;;;;;7.43;3.58;;;;;;;;;;5019228;28;20063;-57
2022/09/12 08:17:21;;;;;;;5.63;3.80;;;;;;;;;;5013705;28;20053;-52
2022/09/12 08:19:55;;;;;;;9.20;3.40;;;;;;;;;;5019494;28;20046;-47
2022/09/12 08:22:23;;;;;;;6.47;3.17;;;;;;;;;;5016577;28;20576;-59
2022/09/12 08:24:50;;;;;;;5.43;3.13;;;;;;;;;;5015977;28;20682;-57
2022/09/12 08:27:24;;;;;;;3.95;2.55;;;;;;;;;;5019670;28;20052;-58
2022/09/12 08:30:04;;;;;;;8.65;3.20;;;;;;;;;;5020335;28;20061;-59
2022/09/12 08:32:38;;;;;;;5.70;2.92;;;;;;;;;;5019429;28;20072;-58
2022/09/12 08:35:05;;;;;;;7.80;2.60;;;;;;;;;;5025559;28;20045;-58
2022/09/12 08:37:32;;;;;;;6.55;2.70;;;;;;;;;;5020211;28;20496;-67
2022/09/12 08:40:07;;;;;;;4.80;3.05;;;;;;;;;;5018886;28;20382;-47
2022/09/12 08:42:55;;;;;;;2.97;2.50;;;;;;;;;;5019974;28;20077;-48
2022/09/12 08:45:33;;;;;;;6.75;2.60;;;;;;;;;;5021995;28;20046;-50
2022/09/12 08:48:02;;;;;;;3.60;2.53;;;;;;;;;;5020658;28;20046;-48
2022/09/12 08:50:36;;;;;;;8.80;2.72;;;;;;;;;;5018129;28;20045;-50
2022/09/12 08:53:21;;;;;;;5.43;2.50;;;;;;;;;;5016069;28;20100;-48
2022/09/12 08:55:58;;;;;;;2.45;2.03;;;;;;;;;;5018394;28;20433;-45
2022/09/12 08:58:27;;;;;;;2.78;2.00;;;;;;;;;;5018528;28;20056;-58
2022/09/12 09:01:00;;;;;;;4.05;2.10;;;;;;;;;;5018034;28;20160;-71
2022/09/12 09:03:34;;;;;;;2.85;1.80;;;;;;;;;;5016253;28;20054;-70
2022/09/12 09:06:17;;;;;;;3.17;1.58;;;;;;;;;;5017504;28;20057;-70
2022/09/12 09:08:57;;;;;;;3.05;1.75;;;;;;;;;;5016972;28;20037;-71
2022/09/12 09:11:44;;;;;;;3.88;2.22;;;;;;;;;;5023258;28;20136;-71
2022/09/12 09:17:10;;;;;;;3.17;1.98;;;;;;;;;;5021415;28;20045;-67
2022/09/12 09:19:47;;;;;;;3.28;2.00;;;;;;;;;;5020945;28;20801;-67
2022/09/12 09:22:25;;;;;;;4.22;2.03;;;;;;;;;;5019898;28;20530;-67
2022/09/12 09:25:01;;;;;;;3.70;1.77;;;;;;;;;;5020865;28;20061;-68
2022/09/12 09:27:34;;;;;;;4.72;1.92;;;;;;;;;;5017630;28;20053;-67
2022/09/12 09:30:23;;;;;;;1.90;1.70;;;;;;;;;;5017059;28;20042;-67
2022/09/12 09:32:59;;;;;;;2.05;1.42;;;;;;;;;;5019853;28;20535;-67
2022/09/12 09:35:46;;;;;;;5.28;1.88;;;;;;;;;;5018665;28;20501;-47
2022/09/12 09:38:21;;;;;;;4.47;1.80;;;;;;;;;;5016288;28;20048;-53
2022/09/12 09:40:58;;;;;;;4.50;1.70;;;;;;;;;;5020574;28;20048;-52
2022/09/12 09:43:28;;;;;;;3.33;1.67;;;;;;;;;;5016690;28;20050;-53
2022/09/12 09:46:02;;;;;;;5.20;1.85;;;;;;;;;;5018276;28;20048;-55
2022/09/12 09:48:37;;;;;;;3.08;1.52;;;;;;;;;;5016846;28;20053;-54
2022/09/12 09:51:10;;;;;;;4.10;1.80;;;;;;;;;;5017278;28;20049;-56
2022/09/12 09:53:37;;;;;;;1.83;1.48;;;;;;;;;;5017581;28;20394;-53
2022/09/12 09:56:28;;;;;;;3.25;1.60;;;;;;;;;;5019049;28;20045;-48
2022/09/12 09:58:56;;;;;;;3.58;1.95;;;;;;;;;;5018379;28;20164;-67
2022/09/12 10:01:29;;;;;;;3.88;1.70;;;;;;;;;;5017407;28;20056;-65
2022/09/12 10:03:56;;;;;;;4.75;1.50;;;;;;;;;;5019063;28;20049;-67
2022/09/12 10:06:33;;;;;;;4.07;1.70;;;;;;;;;;5020644;28;20045;-67
2022/09/12 10:09:16;;;;;;;9.80;1.92;;;;;;;;;;5020408;28;20528;-67
2022/09/12 10:11:44;;;;;;;4.20;1.48;;;;;;;;;;5016657;28;20057;-57
2022/09/12 10:14:30;;;;;;;4.10;1.50;;;;;;;;;;5020333;28;20052;-63
2022/09/12 10:16:58;;;;;;;4.60;1.63;;;;;;;;;;5016149;28;20181;-58
2022/09/12 10:19:34;;;;;;;5.13;1.80;;;;;;;;;;5019969;28;20068;-58
2022/09/12 10:22:02;;;;;;;2.38;1.70;;;;;;;;;;5018068;28;20045;-57
2022/09/12 10:24:40;;;;;;;2.65;1.40;;;;;;;;;;5011377;28;20617;-56
2022/09/12 10:27:19;;;;;;;3.08;1.67;;;;;;;;;;5017040;28;20045;-57
2022/09/12 10:29:55;;;;;;;2.15;1.55;;;;;;;;;;5019001;28;20053;-56
2022/09/12 10:32:33;;;;;;;2.50;1.70;;;;;;;;;;5019736;28;20129;-62
2022/09/12 10:35:27;;;;;;;2.22;1.70;;;;;;;;;;5019607;28;20042;-56
2022/09/12 10:38:01;;;;;;;2.72;1.60;;;;;;;;;;5021536;28;20045;-48
2022/09/12 10:40:40;;;;;;;1.95;1.60;;;;;;;;;;5021459;28;20149;-51
2022/09/12 10:43:18;;;;;;;4.40;1.75;;;;;;;;;;5014595;28;20058;-51
2022/09/12 10:45:51;;;;;;;2.47;1.85;;;;;;;;;;5017757;28;20045;-51
2022/09/12 10:48:27;;;;;;;3.15;1.67;;;;;;;;;;5018083;28;20111;-54
2022/09/12 10:51:02;;;;;;;3.70;1.63;;;;;;;;;;5016973;28;20046;-62
2022/09/12 10:53:39;;;;;;;4.53;1.65;;;;;;;;;;5014456;28;20103;-66
2022/09/12 10:56:16;;;;;;;3.55;1.25;;;;;;;;;;5019756;28;20054;-60
2022/09/12 10:58:43;;;;;;;3.13;1.85;;;;;;;;;;5016926;28;20049;-59
2022/09/12 11:01:28;;;;;;;3.25;1.48;;;;;;;;;;5016231;28;20406;-58
2022/09/12 11:04:21;;;;;;;3.90;1.70;;;;;;;;;;5018223;28;20126;-59
2022/09/12 11:07:06;;;;;;;1.83;1.50;;;;;;;;;;5018093;28;20489;-59
2022/09/12 11:09:46;;;;;;;1.90;1.70;;;;;;;;;;5017702;28;20051;-67
2022/09/12 11:12:26;;;;;;;2.78;1.65;;;;;;;;;;5020521;28;20095;-72
2022/09/12 11:15:18;;;;;;;4.35;2.10;;;;;;;;;;5018547;28;20501;-55
2022/09/12 11:17:51;;;;;;;3.95;1.92;;;;;;;;;;5018529;28;20099;-56
2022/09/12 11:20:25;;;;;;;4.03;1.70;;;;;;;;;;5015865;28;20045;-53
2022/09/12 11:23:03;;;;;;;5.13;1.58;;;;;;;;;;5013147;28;20501;-51
2022/09/12 11:25:47;;;;;;;2.05;1.65;;;;;;;;;;5011070;28;20052;-55
2022/09/12 11:28:15;;;;;;;1.67;1.38;;;;;;;;;;5012244;28;20042;-59
2022/09/12 11:30:58;;;;;;;2.70;1.80;;;;;;;;;;5015392;28;20076;-47
2022/09/12 11:33:25;;;;;;;3.63;1.98;;;;;;;;;;5015244;28;20050;-74
2022/09/12 11:36:02;;;;;;;2.85;1.90;;;;;;;;;;5013783;28;20132;-73
2022/09/12 11:38:47;;;;;;;4.30;1.77;;;;;;;;;;5015110;28;20053;-74
2022/09/12 11:41:20;;;;;;;3.97;1.70;;;;;;;;;;5017811;28;20053;-74
2022/09/12 11:43:55;;;;;;;7.55;1.90;;;;;;;;;;5015848;28;20077;-74
2022/09/12 11:46:36;;;;;;;5.40;1.80;;;;;;;;;;5017954;28;20509;-69
2022/09/12 11:49:12;;;;;;;2.13;1.80;;;;;;;;;;5016315;28;20053;-61
2022/09/12 11:51:48;;;;;;;2.63;1.55;;;;;;;;;;5017391;28;20049;-73
2022/09/12 11:54:27;;;;;;;5.00;1.60;;;;;;;;;;5016421;28;20056;-73
2022/09/12 11:57:05;;;;;;;3.50;1.23;;;;;;;;;;5014520;28;20057;-73
2022/09/12 11:59:42;;;;;;;2.30;1.30;;;;;;;;;;5020354;28;20049;-73
2022/09/12 12:02:21;;;;;;;3.35;1.52;;;;;;;;;;5021085;28;20669;-73
2022/09/12 12:05:15;;;;;;;3.22;1.48;;;;;;;;;;5021855;28;20042;-73
2022/09/12 12:07:53;;;;;;;3.35;1.80;;;;;;;;;;5020389;28;20045;-51
2022/09/12 12:10:26;;;;;;;3.28;1.80;;;;;;;;;;5022704;28;20428;-57
2022/09/12 12:13:02;;;;;;;4.28;1.55;;;;;;;;;;5019710;28;20041;-56
2022/09/12 12:15:30;;;;;;;3.33;1.65;;;;;;;;;;5017317;28;20046;-56
2022/09/12 12:18:02;;;;;;;3.35;1.83;;;;;;;;;;5020483;28;20072;-56
2022/09/12 12:20:36;;;;;;;3.25;1.48;;;;;;;;;;5013963;28;20074;-53
2022/09/12 12:23:04;;;;;;;5.75;1.80;;;;;;;;;;5022473;28;20060;-55
2022/09/12 12:25:39;;;;;;;2.08;1.60;;;;;;;;;;5024469;28;20053;-49
2022/09/12 12:28:06;;;;;;;4.90;1.80;;;;;;;;;;5024270;28;20058;-60
2022/09/12 12:30:33;;;;;;;;;;;;;;;;;;5002823;28;20140;-54
2022/09/12 12:33:14;;;;;;;5.15;1.70;;;;;;;;;;5022036;28;20710;-55
2022/09/12 12:36:01;;;;;;;3.22;1.83;;;;;;;;;;5020263;28;20730;-58
2022/09/12 12:38:37;;;;;;;4.43;1.95;;;;;;;;;;5017444;28;20410;-57
2022/09/12 12:41:16;;;;;;;4.30;1.67;;;;;;;;;;5004779;28;20042;-53
2022/09/12 12:43:51;;;;;;;4.20;2.42;;;;;;;;;;5022173;28;20523;-53
2022/09/12 12:46:19;;;;;;;6.45;1.70;;;;;;;;;;5021062;28;20050;-55
2022/09/12 12:48:57;;;;;;;3.20;1.60;;;;;;;;;;5021982;28;20072;-52
2022/09/12 12:51:40;;;;;;;4.38;1.88;;;;;;;;;;5020784;28;20053;-57
2022/09/12 12:54:31;;;;;;;2.88;1.50;;;;;;;;;;5019505;28;20050;-51
2022/09/12 12:57:03;;;;;;;1.70;1.35;;;;;;;;;;5018574;28;20041;-54
2022/09/12 12:59:36;;;;;;;3.10;2.03;;;;;;;;;;5020754;28;20517;-54
2022/09/12 13:02:04;;;;;;;5.60;1.70;;;;;;;;;;5022222;28;20055;-54
2022/09/12 13:04:31;;;;;;;7.45;1.90;;;;;;;;;;5021687;28;20080;-58
2022/09/12 13:07:07;;;;;;;1.85;1.42;;;;;;;;;;5016092;28;20053;-55
2022/09/12 13:09:47;;;;;;;2.67;1.45;;;;;;;;;;5020101;28;20049;-57
2022/09/12 13:12:28;;;;;;;3.13;1.65;;;;;;;;;;5018492;28;20140;-55
2022/09/12 13:14:58;;;;;;;3.40;1.67;;;;;;;;;;5020719;28;20507;-56
2022/09/12 13:17:37;;;;;;;1.80;1.20;;;;;;;;;;5018593;28;20508;-55
2022/09/12 13:20:16;;;;;;;1.73;1.40;;;;;;;;;;5021002;28;20045;-56
2022/09/12 13:22:55;;;;;;;4.45;1.60;;;;;;;;;;5015561;28;20064;-56
2022/09/12 13:25:22;;;;;;;;;;;;;;;;;;5019096;28;20046;-54
2022/09/12 13:28:19;;;;;;;2.25;1.50;;;;;;;;;;5019785;28;20603;-52
2022/09/12 13:31:14;;;;;;;3.17;1.60;;;;;;;;;;5018689;28;20509;-53
2022/09/12 13:33:50;;;;;;;1.92;1.50;;;;;;;;;;5020687;28;20412;-56
2022/09/12 13:36:27;;;;;;;3.33;1.52;;;;;;;;;;5014376;28;20064;-56
2022/09/12 13:39:13;;;;;;;3.10;1.27;;;;;;;;;;5019979;28;20046;-56
2022/09/12 13:41:52;;;;;;;2.63;1.20;;;;;;;;;;5016933;28;20054;-56
2022/09/12 13:44:21;;;;;;;5.47;1.70;;;;;;;;;;5017542;28;20045;-48
2022/09/12 13:46:58;;;;;;;4.43;1.52;;;;;;;;;;5017100;28;20050;-54
2022/09/12 13:49:36;;;;;;;2.83;1.30;;;;;;;;;;5020992;28;20056;-57
2022/09/12 13:52:19;;;;;;;4.75;1.50;;;;;;;;;;5018567;28;20120;-57
2022/09/12 13:54:48;;;;;;;1.95;1.50;;;;;;;;;;5006621;28;20072;-57
2022/09/12 13:57:40;;;;;;;6.43;1.40;;;;;;;;;;5018721;28;20041;-57
2022/09/12 14:00:12;;;;;;;3.15;1.40;;;;;;;;;;5016579;28;20052;-59
2022/09/12 14:02:47;;;;;;;1.58;1.30;;;;;;;;;;5017031;28;20144;-60
2022/09/12 14:05:23;;;;;;;1.40;0.98;;;;;;;;;;5017945;28;20060;-56
2022/09/12 14:08:00;;;;;;;5.72;1.40;;;;;;;;;;5019412;28;20050;-57
2022/09/12 14:10:34;;;;;;;2.40;1.48;;;;;;;;;;5015437;28;20049;-56
2022/09/12 14:13:13;;;;;;;2.47;1.40;;;;;;;;;;5013385;28;20045;-55
2022/09/12 14:15:43;;;;;;;2.15;1.10;;;;;;;;;;5008401;28;20055;-57
2022/09/12 14:18:22;;;;;;;3.30;1.40;;;;;;;;;;5018048;28;20053;-51
2022/09/12 14:20:57;;;;;;;4.63;1.55;;;;;;;;;;5018944;28;20060;-57
2022/09/12 14:23:26;;;;;;;3.72;1.35;;;;;;;;;;5020186;28;20058;-54
2022/09/12 14:26:02;;;;;;;3.10;1.50;;;;;;;;;;5022158;28;20038;-54
2022/09/12 14:28:30;;;;;;;1.55;1.30;;;;;;;;;;5018127;28;20688;-54
2022/09/12 14:31:01;;;;;;;2.22;1.40;;;;;;;;;;5021162;28;20064;-56
2022/09/12 14:33:49;;;;;;;3.75;1.42;;;;;;;;;;5007327;28;20065;-55
2022/09/12 14:36:17;;;;;;;3.08;1.15;;;;;;;;;;5015176;28;20098;-55
2022/09/12 14:39:00;;;;;;;2.67;1.60;;;;;;;;;;5016800;28;20048;-55
2022/09/12 14:41:29;;;;;;;2.72;1.50;;;;;;;;;;5017786;28;20068;-61
2022/09/12 14:44:06;;;;;;;3.22;1.30;;;;;;;;;;5020396;28;20412;-59
2022/09/12 14:46:43;;;;;;;3.10;1.52;;;;;;;;;;5021560;28;20042;-59
2022/09/12 14:49:21;;;;;;;5.68;1.58;;;;;;;;;;5017889;28;20600;-59
2022/09/12 14:51:51;;;;;;;2.33;1.50;;;;;;;;;;5019845;28;20044;-60
2022/09/12 14:54:28;;;;;;;5.85;1.75;;;;;;;;;;5020201;28;20071;-59
2022/09/12 14:56:56;;;;;;;2.10;1.73;;;;;;;;;;5018904;28;20063;-58
2022/09/12 14:59:29;;;;;;;2.42;1.80;;;;;;;;;;5019534;28;20048;-77
2022/09/12 15:02:19;;;;;;;2.78;1.60;;;;;;;;;;5019172;28;20057;-60
2022/09/12 15:04:50;;;;;;;2.25;1.73;;;;;;;;;;5018135;28;20104;-61
2022/09/12 15:07:32;;;;;;;4.55;1.85;;;;;;;;;;5016776;28;20064;-60
2022/09/12 15:10:01;;;;;;;2.72;1.30;;;;;;;;;;5021747;28;20475;-60
2022/09/12 15:12:34;;;;;;;3.10;1.63;;;;;;;;;;5016771;28;20137;-60
2022/09/12 15:15:15;;;;;;;3.58;1.90;;;;;;;;;;5016903;28;20413;-60
2022/09/12 15:20:22;;;;;;;2.58;1.88;;;;;;;;;;5009890;28;20057;-57
2022/09/12 15:22:56;;;;;;;2.72;1.77;;;;;;;;;;5015155;28;20045;-58
2022/09/12 15:25:24;;;;;;;3.55;1.42;;;;;;;;;;5015911;28;20060;-59